Impacts TAF Board
For situational awareness. Not to be used for flight planning purposes.
IDs:

KSSF - San Antonio/Stinson, TX, US

Issued at 2326 UTC 04 Jul 2022
Updated at 0130 UTC 05 Jul 2022
Potential Impact None Slight Moderate High
Time<<05/14Z 05/15Z 05/16Z 05/17Z 05/18Z 05/19Z 05/20Z 05/21Z 05/22Z 05/23Z 06/00Z 06/01Z 06/02Z>>
Type PRVL PRVL PRVL PRVL PRVL PRVL PRVL PRVL PRVL PRVL
VIS >6 >6 >6 >6 >6 >6 >6 >6 >6 >6
CIG 17 -- -- -- -- -- -- -- -- --
Cover BKN SCT SCT SCT SCT SCT SCT SCT SCT SCT
FltCat MVFR VFR VFR VFR VFR VFR VFR VFR VFR VFR
WX -- -- -- -- -- -- -- -- -- --
WDir 150 160 160 160 160 160 160 160 160 160
WSpd 4 10 10 10 10 10 10 10 10 10
WGst -- 20 20 20 20 20 20 20 20 20
WSHgt -- -- -- -- -- -- -- -- -- --
WSDir -- -- -- -- -- -- -- -- -- --
WSSpd -- -- -- -- -- -- -- -- -- --
Raw TAF
KSSF 042326Z 0500/0524 13013G23KT P6SM SCT060
  FM050900 15004KT P6SM BKN017
  FM051500 16010G20KT P6SM SCT060


METAR Board
Radar Display
Forecast Discussion
For situational awareness. Not to be used for flight planning purposes.